sensor_id;sensor_type;location;lat;lon;timestamp;P1;durP1;ratioP1;P2;durP2;ratioP2
71106;SDS011;58763;47.982;11.516;2023-05-07T00:01:15;6.78;;;4.65;;
71106;SDS011;58763;47.982;11.516;2023-05-07T00:03:40;6.63;;;4.07;;
71106;SDS011;58763;47.982;11.516;2023-05-07T00:06:06;8.48;;;4.03;;
71106;SDS011;58763;47.982;11.516;2023-05-07T00:08:32;6.47;;;4.40;;
71106;SDS011;58763;47.982;11.516;2023-05-07T00:10:58;6.45;;;4.68;;
71106;SDS011;58763;47.982;11.516;2023-05-07T00:13:23;7.78;;;4.68;;
71106;SDS011;58763;47.982;11.516;2023-05-07T00:15:49;6.32;;;4.40;;
71106;SDS011;58763;47.982;11.516;2023-05-07T00:18:14;8.30;;;4.18;;
71106;SDS011;58763;47.982;11.516;2023-05-07T00:20:40;8.55;;;5.00;;
71106;SDS011;58763;47.982;11.516;2023-05-07T00:23:05;7.00;;;4.88;;
71106;SDS011;58763;47.982;11.516;2023-05-07T00:25:31;7.15;;;4.85;;
71106;SDS011;58763;47.982;11.516;2023-05-07T00:27:56;6.80;;;4.90;;
71106;SDS011;58763;47.982;11.516;2023-05-07T00:30:27;5.95;;;4.70;;
71106;SDS011;58763;47.982;11.516;2023-05-07T00:32:53;7.03;;;4.80;;
71106;SDS011;58763;47.982;11.516;2023-05-07T00:35:19;7.90;;;4.70;;
71106;SDS011;58763;47.982;11.516;2023-05-07T00:37:45;8.05;;;4.70;;
71106;SDS011;58763;47.982;11.516;2023-05-07T00:40:10;8.02;;;3.97;;
71106;SDS011;58763;47.982;11.516;2023-05-07T00:42:36;7.70;;;4.32;;
71106;SDS011;58763;47.982;11.516;2023-05-07T00:45:02;7.70;;;4.60;;
71106;SDS011;58763;47.982;11.516;2023-05-07T00:47:28;6.85;;;4.03;;
71106;SDS011;58763;47.982;11.516;2023-05-07T00:49:54;6.25;;;4.55;;
71106;SDS011;58763;47.982;11.516;2023-05-07T00:52:20;10.18;;;4.38;;
71106;SDS011;58763;47.982;11.516;2023-05-07T00:54:49;6.20;;;4.22;;
71106;SDS011;58763;47.982;11.516;2023-05-07T00:57:15;6.70;;;4.05;;
71106;SDS011;58763;47.982;11.516;2023-05-07T00:59:41;5.50;;;3.90;;
71106;SDS011;58763;47.982;11.516;2023-05-07T01:02:07;5.78;;;4.25;;
71106;SDS011;58763;47.982;11.516;2023-05-07T01:04:33;6.85;;;4.60;;
71106;SDS011;58763;47.982;11.516;2023-05-07T01:06:59;5.90;;;4.30;;
71106;SDS011;58763;47.982;11.516;2023-05-07T01:09:25;6.82;;;4.43;;
71106;SDS011;58763;47.982;11.516;2023-05-07T01:11:52;6.13;;;4.00;;
71106;SDS011;58763;47.982;11.516;2023-05-07T01:14:19;6.18;;;3.75;;
71106;SDS011;58763;47.982;11.516;2023-05-07T01:16:46;8.00;;;4.03;;
71106;SDS011;58763;47.982;11.516;2023-05-07T01:19:12;5.90;;;3.97;;
71106;SDS011;58763;47.982;11.516;2023-05-07T01:21:46;5.28;;;3.75;;
71106;SDS011;58763;47.982;11.516;2023-05-07T01:24:15;5.93;;;3.58;;
71106;SDS011;58763;47.982;11.516;2023-05-07T01:26:41;5.57;;;3.90;;
71106;SDS011;58763;47.982;11.516;2023-05-07T01:29:08;6.53;;;3.85;;
71106;SDS011;58763;47.982;11.516;2023-05-07T01:31:34;6.03;;;3.78;;
71106;SDS011;58763;47.982;11.516;2023-05-07T01:34:01;5.60;;;3.70;;
71106;SDS011;58763;47.982;11.516;2023-05-07T01:36:29;7.22;;;3.40;;
71106;SDS011;58763;47.982;11.516;2023-05-07T01:38:55;8.63;;;3.60;;
71106;SDS011;58763;47.982;11.516;2023-05-07T01:41:23;5.20;;;3.63;;
71106;SDS011;58763;47.982;11.516;2023-05-07T01:43:48;5.28;;;3.17;;
71106;SDS011;58763;47.982;11.516;2023-05-07T01:46:16;5.25;;;3.53;;
71106;SDS011;58763;47.982;11.516;2023-05-07T01:48:43;5.95;;;3.38;;
71106;SDS011;58763;47.982;11.516;2023-05-07T01:51:11;5.82;;;3.40;;
71106;SDS011;58763;47.982;11.516;2023-05-07T01:53:37;6.22;;;3.53;;
71106;SDS011;58763;47.982;11.516;2023-05-07T01:56:04;5.72;;;3.40;;
71106;SDS011;58763;47.982;11.516;2023-05-07T01:58:30;6.95;;;3.75;;
71106;SDS011;58763;47.982;11.516;2023-05-07T02:00:56;5.95;;;3.40;;
71106;SDS011;58763;47.982;11.516;2023-05-07T02:03:21;5.90;;;3.05;;
71106;SDS011;58763;47.982;11.516;2023-05-07T02:05:47;5.80;;;3.20;;
71106;SDS011;58763;47.982;11.516;2023-05-07T02:08:12;5.65;;;3.40;;
71106;SDS011;58763;47.982;11.516;2023-05-07T02:10:38;4.90;;;3.00;;
71106;SDS011;58763;47.982;11.516;2023-05-07T02:13:04;4.90;;;3.20;;
71106;SDS011;58763;47.982;11.516;2023-05-07T02:15:29;6.20;;;3.42;;
71106;SDS011;58763;47.982;11.516;2023-05-07T02:18:02;6.13;;;3.22;;
71106;SDS011;58763;47.982;11.516;2023-05-07T02:20:28;5.15;;;3.08;;
71106;SDS011;58763;47.982;11.516;2023-05-07T02:22:54;4.53;;;3.20;;
71106;SDS011;58763;47.982;11.516;2023-05-07T02:25:19;4.65;;;2.95;;
71106;SDS011;58763;47.982;11.516;2023-05-07T02:27:45;4.13;;;2.80;;
71106;SDS011;58763;47.982;11.516;2023-05-07T02:30:11;5.30;;;3.40;;
71106;SDS011;58763;47.982;11.516;2023-05-07T02:32:37;5.55;;;3.13;;
71106;SDS011;58763;47.982;11.516;2023-05-07T02:35:03;4.30;;;2.92;;
71106;SDS011;58763;47.982;11.516;2023-05-07T02:37:29;4.60;;;2.95;;
71106;SDS011;58763;47.982;11.516;2023-05-07T02:39:54;6.57;;;3.30;;
71106;SDS011;58763;47.982;11.516;2023-05-07T02:42:20;6.90;;;3.33;;
71106;SDS011;58763;47.982;11.516;2023-05-07T02:44:45;5.78;;;3.00;;
71106;SDS011;58763;47.982;11.516;2023-05-07T02:47:11;5.10;;;3.00;;
71106;SDS011;58763;47.982;11.516;2023-05-07T02:49:38;6.28;;;3.70;;
71106;SDS011;58763;47.982;11.516;2023-05-07T02:52:04;5.15;;;3.17;;
71106;SDS011;58763;47.982;11.516;2023-05-07T02:54:30;5.47;;;2.90;;
71106;SDS011;58763;47.982;11.516;2023-05-07T02:56:56;5.07;;;3.53;;
71106;SDS011;58763;47.982;11.516;2023-05-07T02:59:22;7.13;;;3.25;;
71106;SDS011;58763;47.982;11.516;2023-05-07T03:01:47;5.50;;;2.97;;
71106;SDS011;58763;47.982;11.516;2023-05-07T03:04:13;5.65;;;2.95;;
71106;SDS011;58763;47.982;11.516;2023-05-07T03:06:39;5.38;;;3.00;;
71106;SDS011;58763;47.982;11.516;2023-05-07T03:09:04;4.72;;;3.08;;
71106;SDS011;58763;47.982;11.516;2023-05-07T03:11:30;5.07;;;2.92;;
71106;SDS011;58763;47.982;11.516;2023-05-07T03:13:55;7.22;;;3.30;;
71106;SDS011;58763;47.982;11.516;2023-05-07T03:16:21;7.18;;;3.30;;
71106;SDS011;58763;47.982;11.516;2023-05-07T03:18:46;8.50;;;2.95;;
71106;SDS011;58763;47.982;11.516;2023-05-07T03:21:12;4.35;;;3.00;;
71106;SDS011;58763;47.982;11.516;2023-05-07T03:23:37;5.22;;;2.85;;
71106;SDS011;58763;47.982;11.516;2023-05-07T03:26:04;4.53;;;2.88;;
71106;SDS011;58763;47.982;11.516;2023-05-07T03:28:30;5.35;;;3.33;;
71106;SDS011;58763;47.982;11.516;2023-05-07T03:30:55;5.15;;;2.95;;
71106;SDS011;58763;47.982;11.516;2023-05-07T03:33:21;4.90;;;3.03;;
71106;SDS011;58763;47.982;11.516;2023-05-07T03:35:46;5.40;;;2.92;;
71106;SDS011;58763;47.982;11.516;2023-05-07T03:38:12;6.13;;;3.03;;
71106;SDS011;58763;47.982;11.516;2023-05-07T03:40:37;6.53;;;3.17;;
71106;SDS011;58763;47.982;11.516;2023-05-07T03:43:03;4.22;;;2.50;;
71106;SDS011;58763;47.982;11.516;2023-05-07T03:45:28;5.47;;;2.83;;
71106;SDS011;58763;47.982;11.516;2023-05-07T03:47:54;6.18;;;2.92;;
71106;SDS011;58763;47.982;11.516;2023-05-07T03:50:20;9.02;;;2.83;;
71106;SDS011;58763;47.982;11.516;2023-05-07T03:52:45;5.30;;;2.97;;
71106;SDS011;58763;47.982;11.516;2023-05-07T03:55:11;6.40;;;3.50;;
71106;SDS011;58763;47.982;11.516;2023-05-07T03:57:37;5.18;;;3.17;;
71106;SDS011;58763;47.982;11.516;2023-05-07T04:00:02;6.70;;;3.13;;
71106;SDS011;58763;47.982;11.516;2023-05-07T04:02:29;4.78;;;3.40;;
71106;SDS011;58763;47.982;11.516;2023-05-07T04:04:55;4.40;;;3.20;;
71106;SDS011;58763;47.982;11.516;2023-05-07T04:07:21;5.88;;;3.13;;
71106;SDS011;58763;47.982;11.516;2023-05-07T04:09:46;4.20;;;2.83;;
71106;SDS011;58763;47.982;11.516;2023-05-07T04:12:12;4.90;;;3.00;;
71106;SDS011;58763;47.982;11.516;2023-05-07T04:14:37;9.07;;;3.22;;
71106;SDS011;58763;47.982;11.516;2023-05-07T04:17:03;6.50;;;3.28;;
71106;SDS011;58763;47.982;11.516;2023-05-07T04:19:29;5.47;;;3.08;;
71106;SDS011;58763;47.982;11.516;2023-05-07T04:21:55;4.30;;;2.92;;
71106;SDS011;58763;47.982;11.516;2023-05-07T04:24:21;5.70;;;3.28;;
71106;SDS011;58763;47.982;11.516;2023-05-07T04:26:46;4.85;;;3.17;;
71106;SDS011;58763;47.982;11.516;2023-05-07T04:29:12;7.25;;;3.30;;
71106;SDS011;58763;47.982;11.516;2023-05-07T04:31:37;6.80;;;3.65;;
71106;SDS011;58763;47.982;11.516;2023-05-07T04:34:03;5.55;;;3.70;;
71106;SDS011;58763;47.982;11.516;2023-05-07T04:36:28;7.93;;;3.10;;
71106;SDS011;58763;47.982;11.516;2023-05-07T04:38:54;7.25;;;3.40;;
71106;SDS011;58763;47.982;11.516;2023-05-07T04:41:20;5.47;;;3.83;;
71106;SDS011;58763;47.982;11.516;2023-05-07T04:43:45;6.07;;;3.85;;
71106;SDS011;58763;47.982;11.516;2023-05-07T04:46:11;5.32;;;3.05;;
71106;SDS011;58763;47.982;11.516;2023-05-07T04:48:36;4.97;;;3.42;;
71106;SDS011;58763;47.982;11.516;2023-05-07T04:51:02;6.70;;;3.85;;
71106;SDS011;58763;47.982;11.516;2023-05-07T04:53:27;6.97;;;3.55;;
71106;SDS011;58763;47.982;11.516;2023-05-07T04:55:56;5.53;;;3.33;;
71106;SDS011;58763;47.982;11.516;2023-05-07T04:58:22;5.10;;;3.33;;
71106;SDS011;58763;47.982;11.516;2023-05-07T05:00:48;7.13;;;3.00;;
71106;SDS011;58763;47.982;11.516;2023-05-07T05:03:14;4.75;;;3.35;;
71106;SDS011;58763;47.982;11.516;2023-05-07T05:05:39;5.40;;;3.40;;
71106;SDS011;58763;47.982;11.516;2023-05-07T05:08:05;5.78;;;3.10;;
71106;SDS011;58763;47.982;11.516;2023-05-07T05:10:30;5.63;;;2.75;;
71106;SDS011;58763;47.982;11.516;2023-05-07T05:12:56;6.80;;;3.38;;
71106;SDS011;58763;47.982;11.516;2023-05-07T05:15:21;7.47;;;3.17;;
71106;SDS011;58763;47.982;11.516;2023-05-07T05:17:47;5.88;;;3.38;;
71106;SDS011;58763;47.982;11.516;2023-05-07T05:20:12;5.00;;;3.20;;
71106;SDS011;58763;47.982;11.516;2023-05-07T05:22:38;7.30;;;3.17;;
71106;SDS011;58763;47.982;11.516;2023-05-07T05:25:04;6.97;;;2.97;;
71106;SDS011;58763;47.982;11.516;2023-05-07T05:27:30;4.72;;;3.03;;
71106;SDS011;58763;47.982;11.516;2023-05-07T05:29:55;5.32;;;3.75;;
71106;SDS011;58763;47.982;11.516;2023-05-07T05:32:20;8.00;;;3.60;;
71106;SDS011;58763;47.982;11.516;2023-05-07T05:34:46;5.68;;;4.10;;
71106;SDS011;58763;47.982;11.516;2023-05-07T05:37:12;6.50;;;4.53;;
71106;SDS011;58763;47.982;11.516;2023-05-07T05:39:38;7.35;;;4.60;;
71106;SDS011;58763;47.982;11.516;2023-05-07T05:42:04;7.28;;;4.00;;
71106;SDS011;58763;47.982;11.516;2023-05-07T05:44:29;5.07;;;3.88;;
71106;SDS011;58763;47.982;11.516;2023-05-07T05:46:55;7.43;;;4.35;;
71106;SDS011;58763;47.982;11.516;2023-05-07T05:49:22;9.73;;;4.22;;
71106;SDS011;58763;47.982;11.516;2023-05-07T05:51:48;7.18;;;3.97;;
71106;SDS011;58763;47.982;11.516;2023-05-07T05:54:14;7.32;;;3.50;;
71106;SDS011;58763;47.982;11.516;2023-05-07T05:56:41;8.63;;;4.40;;
71106;SDS011;58763;47.982;11.516;2023-05-07T05:59:06;6.88;;;3.67;;
71106;SDS011;58763;47.982;11.516;2023-05-07T06:01:32;5.68;;;3.53;;
71106;SDS011;58763;47.982;11.516;2023-05-07T06:03:58;6.10;;;3.70;;
71106;SDS011;58763;47.982;11.516;2023-05-07T06:06:23;5.60;;;3.55;;
71106;SDS011;58763;47.982;11.516;2023-05-07T06:08:49;5.10;;;3.72;;
71106;SDS011;58763;47.982;11.516;2023-05-07T06:11:14;4.95;;;3.75;;
71106;SDS011;58763;47.982;11.516;2023-05-07T06:13:40;6.15;;;3.85;;
71106;SDS011;58763;47.982;11.516;2023-05-07T06:16:06;7.00;;;3.90;;
71106;SDS011;58763;47.982;11.516;2023-05-07T06:18:31;6.25;;;3.67;;
71106;SDS011;58763;47.982;11.516;2023-05-07T06:20:57;5.25;;;3.50;;
71106;SDS011;58763;47.982;11.516;2023-05-07T06:23:22;6.10;;;3.63;;
71106;SDS011;58763;47.982;11.516;2023-05-07T06:25:48;6.20;;;3.75;;
71106;SDS011;58763;47.982;11.516;2023-05-07T06:28:15;5.45;;;3.58;;
71106;SDS011;58763;47.982;11.516;2023-05-07T06:30:40;5.47;;;3.65;;
71106;SDS011;58763;47.982;11.516;2023-05-07T06:33:06;6.70;;;3.90;;
71106;SDS011;58763;47.982;11.516;2023-05-07T06:35:31;6.22;;;3.60;;
71106;SDS011;58763;47.982;11.516;2023-05-07T06:37:57;7.57;;;3.70;;
71106;SDS011;58763;47.982;11.516;2023-05-07T06:40:22;6.00;;;3.35;;
71106;SDS011;58763;47.982;11.516;2023-05-07T06:42:48;5.65;;;3.42;;
71106;SDS011;58763;47.982;11.516;2023-05-07T06:45:13;7.38;;;3.80;;
71106;SDS011;58763;47.982;11.516;2023-05-07T06:47:39;6.00;;;3.47;;
71106;SDS011;58763;47.982;11.516;2023-05-07T06:50:04;5.43;;;3.10;;
71106;SDS011;58763;47.982;11.516;2023-05-07T06:52:31;6.88;;;3.75;;
71106;SDS011;58763;47.982;11.516;2023-05-07T06:54:56;5.80;;;3.30;;
71106;SDS011;58763;47.982;11.516;2023-05-07T06:57:21;4.70;;;3.30;;
71106;SDS011;58763;47.982;11.516;2023-05-07T06:59:47;7.25;;;3.72;;
71106;SDS011;58763;47.982;11.516;2023-05-07T07:02:12;6.90;;;3.50;;
71106;SDS011;58763;47.982;11.516;2023-05-07T07:04:38;5.05;;;3.33;;
71106;SDS011;58763;47.982;11.516;2023-05-07T07:07:03;5.32;;;3.28;;
71106;SDS011;58763;47.982;11.516;2023-05-07T07:09:29;5.57;;;3.45;;
71106;SDS011;58763;47.982;11.516;2023-05-07T07:11:54;6.45;;;2.97;;
71106;SDS011;58763;47.982;11.516;2023-05-07T07:14:20;6.60;;;3.08;;
71106;SDS011;58763;47.982;11.516;2023-05-07T07:16:45;4.95;;;3.05;;
71106;SDS011;58763;47.982;11.516;2023-05-07T07:19:12;4.30;;;2.70;;
71106;SDS011;58763;47.982;11.516;2023-05-07T07:21:37;4.20;;;2.63;;
71106;SDS011;58763;47.982;11.516;2023-05-07T07:24:02;7.03;;;2.60;;
71106;SDS011;58763;47.982;11.516;2023-05-07T07:26:28;4.85;;;2.80;;
71106;SDS011;58763;47.982;11.516;2023-05-07T07:28:54;4.55;;;2.47;;
71106;SDS011;58763;47.982;11.516;2023-05-07T07:31:19;4.68;;;2.70;;
71106;SDS011;58763;47.982;11.516;2023-05-07T07:33:44;4.55;;;2.53;;
71106;SDS011;58763;47.982;11.516;2023-05-07T07:36:10;6.25;;;2.40;;
71106;SDS011;58763;47.982;11.516;2023-05-07T07:38:36;5.00;;;2.05;;
71106;SDS011;58763;47.982;11.516;2023-05-07T07:41:01;5.95;;;2.70;;
71106;SDS011;58763;47.982;11.516;2023-05-07T07:43:27;4.57;;;2.63;;
71106;SDS011;58763;47.982;11.516;2023-05-07T07:45:52;4.75;;;1.90;;
71106;SDS011;58763;47.982;11.516;2023-05-07T07:48:19;4.57;;;2.63;;
71106;SDS011;58763;47.982;11.516;2023-05-07T07:50:45;4.15;;;2.20;;
71106;SDS011;58763;47.982;11.516;2023-05-07T07:53:14;4.05;;;2.50;;
71106;SDS011;58763;47.982;11.516;2023-05-07T07:55:39;4.82;;;2.47;;
71106;SDS011;58763;47.982;11.516;2023-05-07T07:58:05;4.55;;;2.50;;
71106;SDS011;58763;47.982;11.516;2023-05-07T08:00:30;4.63;;;2.10;;
71106;SDS011;58763;47.982;11.516;2023-05-07T08:02:56;3.30;;;1.92;;
71106;SDS011;58763;47.982;11.516;2023-05-07T08:05:22;4.32;;;2.22;;
71106;SDS011;58763;47.982;11.516;2023-05-07T08:07:47;4.10;;;2.08;;
71106;SDS011;58763;47.982;11.516;2023-05-07T08:10:17;3.50;;;2.00;;
71106;SDS011;58763;47.982;11.516;2023-05-07T08:12:46;5.28;;;1.88;;
71106;SDS011;58763;47.982;11.516;2023-05-07T08:15:13;3.47;;;1.85;;
71106;SDS011;58763;47.982;11.516;2023-05-07T08:17:38;4.05;;;2.13;;
71106;SDS011;58763;47.982;11.516;2023-05-07T08:20:04;4.30;;;1.85;;
71106;SDS011;58763;47.982;11.516;2023-05-07T08:22:30;4.63;;;1.92;;
71106;SDS011;58763;47.982;11.516;2023-05-07T08:24:56;3.75;;;1.88;;
71106;SDS011;58763;47.982;11.516;2023-05-07T08:27:21;3.65;;;1.85;;
71106;SDS011;58763;47.982;11.516;2023-05-07T08:29:46;3.35;;;2.00;;
71106;SDS011;58763;47.982;11.516;2023-05-07T08:32:13;4.88;;;1.90;;
71106;SDS011;58763;47.982;11.516;2023-05-07T08:34:38;4.53;;;1.70;;
71106;SDS011;58763;47.982;11.516;2023-05-07T08:37:04;3.38;;;1.70;;
71106;SDS011;58763;47.982;11.516;2023-05-07T08:39:29;3.50;;;1.70;;
71106;SDS011;58763;47.982;11.516;2023-05-07T08:41:55;3.33;;;1.75;;
71106;SDS011;58763;47.982;11.516;2023-05-07T08:44:23;3.13;;;1.60;;
71106;SDS011;58763;47.982;11.516;2023-05-07T08:46:53;4.57;;;1.77;;
71106;SDS011;58763;47.982;11.516;2023-05-07T08:49:20;3.30;;;1.73;;
71106;SDS011;58763;47.982;11.516;2023-05-07T08:51:46;4.43;;;1.90;;
71106;SDS011;58763;47.982;11.516;2023-05-07T08:54:12;3.65;;;1.90;;
71106;SDS011;58763;47.982;11.516;2023-05-07T08:56:41;4.35;;;1.90;;
71106;SDS011;58763;47.982;11.516;2023-05-07T08:59:07;4.60;;;1.55;;
71106;SDS011;58763;47.982;11.516;2023-05-07T09:01:32;2.55;;;1.30;;
71106;SDS011;58763;47.982;11.516;2023-05-07T09:04:00;3.88;;;1.50;;
71106;SDS011;58763;47.982;11.516;2023-05-07T09:06:26;3.10;;;1.63;;
71106;SDS011;58763;47.982;11.516;2023-05-07T09:08:52;4.82;;;1.67;;
71106;SDS011;58763;47.982;11.516;2023-05-07T09:11:25;5.15;;;1.80;;
71106;SDS011;58763;47.982;11.516;2023-05-07T09:13:54;3.10;;;1.55;;
71106;SDS011;58763;47.982;11.516;2023-05-07T09:16:25;3.88;;;1.67;;
71106;SDS011;58763;47.982;11.516;2023-05-07T09:18:51;2.75;;;1.42;;
71106;SDS011;58763;47.982;11.516;2023-05-07T09:21:18;3.95;;;1.52;;
71106;SDS011;58763;47.982;11.516;2023-05-07T09:23:45;3.50;;;1.60;;
71106;SDS011;58763;47.982;11.516;2023-05-07T09:26:10;3.22;;;1.73;;
71106;SDS011;58763;47.982;11.516;2023-05-07T09:28:39;4.38;;;1.80;;
71106;SDS011;58763;47.982;11.516;2023-05-07T09:31:09;2.22;;;1.30;;
71106;SDS011;58763;47.982;11.516;2023-05-07T09:33:37;4.72;;;1.73;;
71106;SDS011;58763;47.982;11.516;2023-05-07T09:36:04;2.95;;;1.45;;
71106;SDS011;58763;47.982;11.516;2023-05-07T09:38:34;4.45;;;1.60;;
71106;SDS011;58763;47.982;11.516;2023-05-07T09:41:10;2.70;;;1.25;;
71106;SDS011;58763;47.982;11.516;2023-05-07T09:43:37;3.30;;;1.85;;
71106;SDS011;58763;47.982;11.516;2023-05-07T09:46:11;3.53;;;1.63;;
71106;SDS011;58763;47.982;11.516;2023-05-07T09:48:38;3.42;;;1.70;;
71106;SDS011;58763;47.982;11.516;2023-05-07T09:51:13;3.55;;;1.45;;
71106;SDS011;58763;47.982;11.516;2023-05-07T09:53:50;4.55;;;1.80;;
71106;SDS011;58763;47.982;11.516;2023-05-07T09:56:18;4.97;;;1.40;;
71106;SDS011;58763;47.982;11.516;2023-05-07T09:58:45;5.05;;;1.30;;
71106;SDS011;58763;47.982;11.516;2023-05-07T10:01:12;4.13;;;1.50;;
71106;SDS011;58763;47.982;11.516;2023-05-07T10:03:39;2.90;;;1.55;;
71106;SDS011;58763;47.982;11.516;2023-05-07T10:06:08;3.97;;;1.40;;
71106;SDS011;58763;47.982;11.516;2023-05-07T10:08:35;4.32;;;1.48;;
71106;SDS011;58763;47.982;11.516;2023-05-07T10:11:02;4.32;;;1.38;;
71106;SDS011;58763;47.982;11.516;2023-05-07T10:13:29;3.05;;;1.42;;
71106;SDS011;58763;47.982;11.516;2023-05-07T10:15:55;3.05;;;1.42;;
71106;SDS011;58763;47.982;11.516;2023-05-07T10:18:21;3.50;;;1.50;;
71106;SDS011;58763;47.982;11.516;2023-05-07T10:20:54;3.28;;;1.45;;
71106;SDS011;58763;47.982;11.516;2023-05-07T10:23:33;3.05;;;1.30;;
71106;SDS011;58763;47.982;11.516;2023-05-07T10:26:03;4.72;;;1.70;;
71106;SDS011;58763;47.982;11.516;2023-05-07T10:28:30;5.57;;;1.45;;
71106;SDS011;58763;47.982;11.516;2023-05-07T10:33:31;4.50;;;1.20;;
71106;SDS011;58763;47.982;11.516;2023-05-07T10:35:59;2.38;;;1.27;;
71106;SDS011;58763;47.982;11.516;2023-05-07T10:38:27;3.38;;;1.60;;
71106;SDS011;58763;47.982;11.516;2023-05-07T10:40:53;2.72;;;1.13;;
71106;SDS011;58763;47.982;11.516;2023-05-07T10:43:18;3.22;;;1.55;;
71106;SDS011;58763;47.982;11.516;2023-05-07T10:45:49;4.00;;;1.83;;
71106;SDS011;58763;47.982;11.516;2023-05-07T10:51:26;3.35;;;1.80;;
71106;SDS011;58763;47.982;11.516;2023-05-07T10:56:36;3.00;;;1.70;;
71106;SDS011;58763;47.982;11.516;2023-05-07T11:01:55;5.70;;;1.58;;
71106;SDS011;58763;47.982;11.516;2023-05-07T11:04:21;3.70;;;1.90;;
71106;SDS011;58763;47.982;11.516;2023-05-07T11:15:01;3.40;;;1.67;;
71106;SDS011;58763;47.982;11.516;2023-05-07T11:17:27;5.72;;;1.58;;
71106;SDS011;58763;47.982;11.516;2023-05-07T11:19:56;4.90;;;1.70;;
71106;SDS011;58763;47.982;11.516;2023-05-07T11:25:01;4.03;;;1.45;;
71106;SDS011;58763;47.982;11.516;2023-05-07T11:27:28;3.38;;;1.42;;
71106;SDS011;58763;47.982;11.516;2023-05-07T11:29:54;3.90;;;1.38;;
71106;SDS011;58763;47.982;11.516;2023-05-07T11:32:23;3.50;;;1.50;;
71106;SDS011;58763;47.982;11.516;2023-05-07T11:34:53;4.72;;;1.50;;
71106;SDS011;58763;47.982;11.516;2023-05-07T11:37:20;2.92;;;1.48;;
71106;SDS011;58763;47.982;11.516;2023-05-07T11:39:46;3.33;;;1.33;;
71106;SDS011;58763;47.982;11.516;2023-05-07T11:42:27;4.72;;;1.40;;
71106;SDS011;58763;47.982;11.516;2023-05-07T11:44:56;3.20;;;1.48;;
71106;SDS011;58763;47.982;11.516;2023-05-07T11:47:22;2.80;;;1.50;;
71106;SDS011;58763;47.982;11.516;2023-05-07T11:49:49;3.45;;;1.35;;
71106;SDS011;58763;47.982;11.516;2023-05-07T11:52:16;2.92;;;1.30;;
71106;SDS011;58763;47.982;11.516;2023-05-07T11:54:49;3.78;;;1.70;;
71106;SDS011;58763;47.982;11.516;2023-05-07T11:57:23;3.83;;;1.58;;
71106;SDS011;58763;47.982;11.516;2023-05-07T11:59:58;4.45;;;1.60;;
71106;SDS011;58763;47.982;11.516;2023-05-07T12:02:27;3.58;;;1.50;;
71106;SDS011;58763;47.982;11.516;2023-05-07T12:04:53;4.47;;;1.60;;
71106;SDS011;58763;47.982;11.516;2023-05-07T12:07:20;5.38;;;1.33;;
71106;SDS011;58763;47.982;11.516;2023-05-07T12:09:46;4.00;;;1.58;;
71106;SDS011;58763;47.982;11.516;2023-05-07T12:12:12;3.20;;;1.70;;
71106;SDS011;58763;47.982;11.516;2023-05-07T12:14:43;3.97;;;1.52;;
71106;SDS011;58763;47.982;11.516;2023-05-07T12:17:10;5.13;;;1.50;;
71106;SDS011;58763;47.982;11.516;2023-05-07T12:19:37;2.90;;;1.20;;
71106;SDS011;58763;47.982;11.516;2023-05-07T12:22:04;6.07;;;1.80;;
71106;SDS011;58763;47.982;11.516;2023-05-07T12:24:48;5.72;;;1.63;;
71106;SDS011;58763;47.982;11.516;2023-05-07T12:27:15;6.00;;;1.65;;
71106;SDS011;58763;47.982;11.516;2023-05-07T12:29:44;3.10;;;1.40;;
71106;SDS011;58763;47.982;11.516;2023-05-07T12:32:15;3.75;;;1.98;;
71106;SDS011;58763;47.982;11.516;2023-05-07T12:34:41;3.25;;;1.77;;
71106;SDS011;58763;47.982;11.516;2023-05-07T12:37:07;3.55;;;1.80;;
71106;SDS011;58763;47.982;11.516;2023-05-07T12:39:32;3.83;;;1.65;;
71106;SDS011;58763;47.982;11.516;2023-05-07T12:41:58;4.15;;;1.60;;
71106;SDS011;58763;47.982;11.516;2023-05-07T12:44:25;3.25;;;1.75;;
71106;SDS011;58763;47.982;11.516;2023-05-07T12:46:54;3.25;;;1.70;;
71106;SDS011;58763;47.982;11.516;2023-05-07T12:49:20;4.68;;;1.90;;
71106;SDS011;58763;47.982;11.516;2023-05-07T12:51:48;4.18;;;2.10;;
71106;SDS011;58763;47.982;11.516;2023-05-07T12:57:03;4.90;;;1.70;;
71106;SDS011;58763;47.982;11.516;2023-05-07T12:59:34;4.47;;;1.80;;
71106;SDS011;58763;47.982;11.516;2023-05-07T13:02:01;4.35;;;2.20;;
71106;SDS011;58763;47.982;11.516;2023-05-07T13:04:26;3.72;;;1.75;;
71106;SDS011;58763;47.982;11.516;2023-05-07T13:06:52;3.97;;;2.00;;
71106;SDS011;58763;47.982;11.516;2023-05-07T13:09:17;3.30;;;1.70;;
71106;SDS011;58763;47.982;11.516;2023-05-07T13:11:42;4.00;;;2.20;;
71106;SDS011;58763;47.982;11.516;2023-05-07T13:14:08;5.07;;;2.28;;
71106;SDS011;58763;47.982;11.516;2023-05-07T13:16:33;4.10;;;1.70;;
71106;SDS011;58763;47.982;11.516;2023-05-07T13:18:59;3.58;;;1.75;;
71106;SDS011;58763;47.982;11.516;2023-05-07T13:21:25;4.25;;;2.08;;
71106;SDS011;58763;47.982;11.516;2023-05-07T13:23:51;3.38;;;2.00;;
71106;SDS011;58763;47.982;11.516;2023-05-07T13:26:17;3.78;;;1.90;;
71106;SDS011;58763;47.982;11.516;2023-05-07T13:28:43;3.17;;;1.92;;
71106;SDS011;58763;47.982;11.516;2023-05-07T13:31:08;5.15;;;2.35;;
71106;SDS011;58763;47.982;11.516;2023-05-07T13:33:34;4.90;;;2.20;;
71106;SDS011;58763;47.982;11.516;2023-05-07T13:36:00;4.28;;;1.77;;
71106;SDS011;58763;47.982;11.516;2023-05-07T13:38:27;4.40;;;1.75;;
71106;SDS011;58763;47.982;11.516;2023-05-07T13:40:52;2.70;;;1.73;;
71106;SDS011;58763;47.982;11.516;2023-05-07T13:43:18;3.22;;;1.60;;
71106;SDS011;58763;47.982;11.516;2023-05-07T13:45:44;3.33;;;1.80;;
71106;SDS011;58763;47.982;11.516;2023-05-07T13:48:10;4.05;;;1.90;;
71106;SDS011;58763;47.982;11.516;2023-05-07T13:50:35;3.67;;;1.92;;
71106;SDS011;58763;47.982;11.516;2023-05-07T13:53:01;3.42;;;1.92;;
71106;SDS011;58763;47.982;11.516;2023-05-07T13:55:28;2.75;;;1.70;;
71106;SDS011;58763;47.982;11.516;2023-05-07T13:57:58;3.72;;;1.77;;
71106;SDS011;58763;47.982;11.516;2023-05-07T14:02:51;3.40;;;1.88;;
71106;SDS011;58763;47.982;11.516;2023-05-07T14:05:17;5.82;;;1.90;;
71106;SDS011;58763;47.982;11.516;2023-05-07T14:07:42;3.30;;;1.80;;
71106;SDS011;58763;47.982;11.516;2023-05-07T14:10:09;3.58;;;1.67;;
71106;SDS011;58763;47.982;11.516;2023-05-07T14:12:36;3.88;;;1.80;;
71106;SDS011;58763;47.982;11.516;2023-05-07T14:15:02;3.63;;;1.65;;
71106;SDS011;58763;47.982;11.516;2023-05-07T14:17:28;3.80;;;2.00;;
71106;SDS011;58763;47.982;11.516;2023-05-07T14:19:53;3.50;;;1.95;;
71106;SDS011;58763;47.982;11.516;2023-05-07T14:22:20;4.85;;;2.17;;
71106;SDS011;58763;47.982;11.516;2023-05-07T14:24:47;3.60;;;1.75;;
71106;SDS011;58763;47.982;11.516;2023-05-07T14:27:13;4.50;;;2.03;;
71106;SDS011;58763;47.982;11.516;2023-05-07T14:29:39;4.05;;;1.88;;
71106;SDS011;58763;47.982;11.516;2023-05-07T14:32:04;4.38;;;1.92;;
71106;SDS011;58763;47.982;11.516;2023-05-07T14:34:30;4.43;;;1.85;;
71106;SDS011;58763;47.982;11.516;2023-05-07T14:36:56;6.10;;;1.73;;
71106;SDS011;58763;47.982;11.516;2023-05-07T14:39:21;3.92;;;1.90;;
71106;SDS011;58763;47.982;11.516;2023-05-07T14:41:47;3.53;;;2.10;;
71106;SDS011;58763;47.982;11.516;2023-05-07T14:44:12;3.33;;;1.58;;
71106;SDS011;58763;47.982;11.516;2023-05-07T14:46:38;3.20;;;1.90;;
71106;SDS011;58763;47.982;11.516;2023-05-07T14:49:03;4.18;;;1.80;;
71106;SDS011;58763;47.982;11.516;2023-05-07T14:51:29;2.90;;;1.65;;
71106;SDS011;58763;47.982;11.516;2023-05-07T14:53:56;4.18;;;1.85;;
71106;SDS011;58763;47.982;11.516;2023-05-07T14:56:22;3.72;;;2.00;;